sensor_id;sensor_type;location;lat;lon;timestamp;P1;durP1;ratioP1;P2;durP2;ratioP2
32250;SDS011;41295;48.518;9.206;2023-06-14T00:01:17;16.75;;;5.90;;
32250;SDS011;41295;48.518;9.206;2023-06-14T00:03:21;13.10;;;5.68;;
32250;SDS011;41295;48.518;9.206;2023-06-14T00:05:26;10.32;;;5.60;;
32250;SDS011;41295;48.518;9.206;2023-06-14T00:07:34;10.00;;;5.00;;
32250;SDS011;41295;48.518;9.206;2023-06-14T00:09:38;9.63;;;5.43;;
32250;SDS011;41295;48.518;9.206;2023-06-14T00:11:40;11.85;;;5.28;;
32250;SDS011;41295;48.518;9.206;2023-06-14T00:13:43;9.82;;;5.00;;
32250;SDS011;41295;48.518;9.206;2023-06-14T00:15:48;10.85;;;5.43;;
32250;SDS011;41295;48.518;9.206;2023-06-14T00:17:50;8.60;;;4.88;;
32250;SDS011;41295;48.518;9.206;2023-06-14T00:19:53;13.07;;;5.35;;
32250;SDS011;41295;48.518;9.206;2023-06-14T00:21:57;7.95;;;5.15;;
32250;SDS011;41295;48.518;9.206;2023-06-14T00:24:00;13.00;;;4.70;;
32250;SDS011;41295;48.518;9.206;2023-06-14T00:26:03;11.40;;;4.78;;
32250;SDS011;41295;48.518;9.206;2023-06-14T00:28:06;10.40;;;5.25;;
32250;SDS011;41295;48.518;9.206;2023-06-14T00:30:09;12.70;;;5.07;;
32250;SDS011;41295;48.518;9.206;2023-06-14T00:32:14;13.88;;;5.20;;
32250;SDS011;41295;48.518;9.206;2023-06-14T00:34:17;12.23;;;5.40;;
32250;SDS011;41295;48.518;9.206;2023-06-14T00:36:19;10.32;;;5.00;;
32250;SDS011;41295;48.518;9.206;2023-06-14T00:38:22;12.18;;;5.85;;
32250;SDS011;41295;48.518;9.206;2023-06-14T00:40:25;11.50;;;5.47;;
32250;SDS011;41295;48.518;9.206;2023-06-14T00:42:28;11.55;;;5.40;;
32250;SDS011;41295;48.518;9.206;2023-06-14T00:44:31;9.73;;;4.93;;
32250;SDS011;41295;48.518;9.206;2023-06-14T00:46:33;13.25;;;4.85;;
32250;SDS011;41295;48.518;9.206;2023-06-14T00:48:37;12.43;;;5.93;;
32250;SDS011;41295;48.518;9.206;2023-06-14T00:50:42;10.10;;;5.38;;
32250;SDS011;41295;48.518;9.206;2023-06-14T00:52:47;13.13;;;5.75;;
32250;SDS011;41295;48.518;9.206;2023-06-14T00:54:50;12.98;;;5.88;;
32250;SDS011;41295;48.518;9.206;2023-06-14T00:56:53;11.90;;;6.18;;
32250;SDS011;41295;48.518;9.206;2023-06-14T00:58:56;12.25;;;5.65;;
32250;SDS011;41295;48.518;9.206;2023-06-14T01:01:00;10.98;;;5.82;;
32250;SDS011;41295;48.518;9.206;2023-06-14T01:03:03;11.85;;;6.05;;
32250;SDS011;41295;48.518;9.206;2023-06-14T01:05:08;10.98;;;5.97;;
32250;SDS011;41295;48.518;9.206;2023-06-14T01:07:15;15.35;;;7.28;;
32250;SDS011;41295;48.518;9.206;2023-06-14T01:09:27;11.90;;;5.95;;
32250;SDS011;41295;48.518;9.206;2023-06-14T01:11:35;13.48;;;6.78;;
32250;SDS011;41295;48.518;9.206;2023-06-14T01:13:43;13.80;;;6.20;;
32250;SDS011;41295;48.518;9.206;2023-06-14T01:15:48;13.20;;;6.03;;
32250;SDS011;41295;48.518;9.206;2023-06-14T01:17:53;14.70;;;6.38;;
32250;SDS011;41295;48.518;9.206;2023-06-14T01:20:04;14.07;;;6.00;;
32250;SDS011;41295;48.518;9.206;2023-06-14T01:22:13;11.45;;;5.60;;
32250;SDS011;41295;48.518;9.206;2023-06-14T01:24:17;11.02;;;5.40;;
32250;SDS011;41295;48.518;9.206;2023-06-14T01:26:24;13.45;;;6.07;;
32250;SDS011;41295;48.518;9.206;2023-06-14T01:28:30;11.88;;;6.00;;
32250;SDS011;41295;48.518;9.206;2023-06-14T01:30:34;13.63;;;6.22;;
32250;SDS011;41295;48.518;9.206;2023-06-14T01:32:38;11.32;;;5.45;;
32250;SDS011;41295;48.518;9.206;2023-06-14T01:34:41;12.35;;;5.97;;
32250;SDS011;41295;48.518;9.206;2023-06-14T01:36:44;12.45;;;5.65;;
32250;SDS011;41295;48.518;9.206;2023-06-14T01:38:48;11.10;;;6.13;;
32250;SDS011;41295;48.518;9.206;2023-06-14T01:40:54;12.10;;;5.32;;
32250;SDS011;41295;48.518;9.206;2023-06-14T01:43:00;14.50;;;6.05;;
32250;SDS011;41295;48.518;9.206;2023-06-14T01:45:07;9.38;;;5.20;;
32250;SDS011;41295;48.518;9.206;2023-06-14T01:47:11;10.10;;;5.05;;
32250;SDS011;41295;48.518;9.206;2023-06-14T01:49:14;12.38;;;5.47;;
32250;SDS011;41295;48.518;9.206;2023-06-14T01:51:17;9.25;;;5.20;;
32250;SDS011;41295;48.518;9.206;2023-06-14T01:53:19;15.68;;;5.95;;
32250;SDS011;41295;48.518;9.206;2023-06-14T01:55:22;11.75;;;5.97;;
32250;SDS011;41295;48.518;9.206;2023-06-14T01:57:27;10.85;;;5.60;;
32250;SDS011;41295;48.518;9.206;2023-06-14T01:59:30;11.82;;;5.97;;
32250;SDS011;41295;48.518;9.206;2023-06-14T02:01:36;8.93;;;5.57;;
32250;SDS011;41295;48.518;9.206;2023-06-14T02:03:38;11.20;;;5.70;;
32250;SDS011;41295;48.518;9.206;2023-06-14T02:05:41;9.55;;;5.80;;
32250;SDS011;41295;48.518;9.206;2023-06-14T02:07:44;12.05;;;5.63;;
32250;SDS011;41295;48.518;9.206;2023-06-14T02:09:47;10.93;;;6.00;;
32250;SDS011;41295;48.518;9.206;2023-06-14T02:11:50;9.75;;;5.80;;
32250;SDS011;41295;48.518;9.206;2023-06-14T02:13:54;12.60;;;6.05;;
32250;SDS011;41295;48.518;9.206;2023-06-14T02:15:57;11.27;;;5.55;;
32250;SDS011;41295;48.518;9.206;2023-06-14T02:18:01;12.45;;;5.50;;
32250;SDS011;41295;48.518;9.206;2023-06-14T02:20:05;12.77;;;6.47;;
32250;SDS011;41295;48.518;9.206;2023-06-14T02:22:09;9.98;;;5.93;;
32250;SDS011;41295;48.518;9.206;2023-06-14T02:24:12;13.65;;;6.07;;
32250;SDS011;41295;48.518;9.206;2023-06-14T02:26:15;12.02;;;5.53;;
32250;SDS011;41295;48.518;9.206;2023-06-14T02:28:18;8.98;;;5.13;;
32250;SDS011;41295;48.518;9.206;2023-06-14T02:30:23;13.60;;;5.68;;
32250;SDS011;41295;48.518;9.206;2023-06-14T02:32:25;13.20;;;5.72;;
32250;SDS011;41295;48.518;9.206;2023-06-14T02:34:28;11.68;;;6.07;;
32250;SDS011;41295;48.518;9.206;2023-06-14T02:36:31;9.13;;;5.43;;
32250;SDS011;41295;48.518;9.206;2023-06-14T02:38:34;11.13;;;5.45;;
32250;SDS011;41295;48.518;9.206;2023-06-14T02:40:37;9.32;;;4.57;;
32250;SDS011;41295;48.518;9.206;2023-06-14T02:42:39;14.68;;;6.57;;
32250;SDS011;41295;48.518;9.206;2023-06-14T02:44:42;11.52;;;5.70;;
32250;SDS011;41295;48.518;9.206;2023-06-14T02:46:47;16.00;;;5.43;;
32250;SDS011;41295;48.518;9.206;2023-06-14T02:48:50;10.30;;;5.07;;
32250;SDS011;41295;48.518;9.206;2023-06-14T02:50:53;11.10;;;5.38;;
32250;SDS011;41295;48.518;9.206;2023-06-14T02:52:55;8.25;;;5.25;;
32250;SDS011;41295;48.518;9.206;2023-06-14T02:54:58;8.82;;;5.53;;
32250;SDS011;41295;48.518;9.206;2023-06-14T02:57:01;12.60;;;5.13;;
32250;SDS011;41295;48.518;9.206;2023-06-14T02:59:04;11.90;;;5.93;;
32250;SDS011;41295;48.518;9.206;2023-06-14T03:01:07;11.95;;;5.53;;
32250;SDS011;41295;48.518;9.206;2023-06-14T03:03:15;10.68;;;5.72;;
32250;SDS011;41295;48.518;9.206;2023-06-14T03:05:19;11.32;;;5.38;;
32250;SDS011;41295;48.518;9.206;2023-06-14T03:07:23;11.07;;;5.20;;
32250;SDS011;41295;48.518;9.206;2023-06-14T03:09:26;9.48;;;5.25;;
32250;SDS011;41295;48.518;9.206;2023-06-14T03:11:30;13.20;;;5.68;;
32250;SDS011;41295;48.518;9.206;2023-06-14T03:13:33;13.15;;;6.00;;
32250;SDS011;41295;48.518;9.206;2023-06-14T03:15:36;11.23;;;5.57;;
32250;SDS011;41295;48.518;9.206;2023-06-14T03:17:39;15.38;;;5.55;;
32250;SDS011;41295;48.518;9.206;2023-06-14T03:19:48;10.63;;;5.45;;
32250;SDS011;41295;48.518;9.206;2023-06-14T03:21:51;9.75;;;5.45;;
32250;SDS011;41295;48.518;9.206;2023-06-14T03:23:54;13.07;;;5.97;;
32250;SDS011;41295;48.518;9.206;2023-06-14T03:25:57;13.90;;;5.38;;
32250;SDS011;41295;48.518;9.206;2023-06-14T03:28:00;14.23;;;5.07;;
32250;SDS011;41295;48.518;9.206;2023-06-14T03:30:03;9.45;;;5.90;;
32250;SDS011;41295;48.518;9.206;2023-06-14T03:32:06;14.07;;;5.95;;
32250;SDS011;41295;48.518;9.206;2023-06-14T03:34:10;8.32;;;5.53;;
32250;SDS011;41295;48.518;9.206;2023-06-14T03:36:14;10.93;;;6.72;;
32250;SDS011;41295;48.518;9.206;2023-06-14T03:38:16;9.98;;;5.82;;
32250;SDS011;41295;48.518;9.206;2023-06-14T03:40:20;10.60;;;5.85;;
32250;SDS011;41295;48.518;9.206;2023-06-14T03:42:23;10.40;;;6.13;;
32250;SDS011;41295;48.518;9.206;2023-06-14T03:44:26;13.10;;;5.63;;
32250;SDS011;41295;48.518;9.206;2023-06-14T03:46:29;10.75;;;5.65;;
32250;SDS011;41295;48.518;9.206;2023-06-14T03:48:32;11.98;;;6.25;;
32250;SDS011;41295;48.518;9.206;2023-06-14T03:50:35;10.07;;;5.75;;
32250;SDS011;41295;48.518;9.206;2023-06-14T03:52:40;9.77;;;6.30;;
32250;SDS011;41295;48.518;9.206;2023-06-14T03:54:44;10.57;;;6.03;;
32250;SDS011;41295;48.518;9.206;2023-06-14T03:56:50;10.60;;;5.75;;
32250;SDS011;41295;48.518;9.206;2023-06-14T03:58:53;12.23;;;5.75;;
32250;SDS011;41295;48.518;9.206;2023-06-14T04:00:56;12.20;;;6.18;;
32250;SDS011;41295;48.518;9.206;2023-06-14T04:02:59;9.77;;;5.93;;
32250;SDS011;41295;48.518;9.206;2023-06-14T04:05:01;8.32;;;5.60;;
32250;SDS011;41295;48.518;9.206;2023-06-14T04:07:05;12.48;;;5.97;;
32250;SDS011;41295;48.518;9.206;2023-06-14T04:09:11;9.82;;;5.85;;
32250;SDS011;41295;48.518;9.206;2023-06-14T04:11:13;11.45;;;5.18;;
32250;SDS011;41295;48.518;9.206;2023-06-14T04:13:16;10.82;;;5.75;;
32250;SDS011;41295;48.518;9.206;2023-06-14T04:15:19;14.63;;;5.40;;
32250;SDS011;41295;48.518;9.206;2023-06-14T04:17:22;8.95;;;5.50;;
32250;SDS011;41295;48.518;9.206;2023-06-14T04:19:25;16.48;;;5.80;;
32250;SDS011;41295;48.518;9.206;2023-06-14T04:21:28;10.90;;;6.03;;
32250;SDS011;41295;48.518;9.206;2023-06-14T04:23:30;14.90;;;5.82;;
32250;SDS011;41295;48.518;9.206;2023-06-14T04:25:35;8.50;;;5.57;;
32250;SDS011;41295;48.518;9.206;2023-06-14T04:27:38;10.88;;;5.60;;
32250;SDS011;41295;48.518;9.206;2023-06-14T04:29:41;13.32;;;5.75;;
32250;SDS011;41295;48.518;9.206;2023-06-14T04:31:45;7.78;;;5.22;;
32250;SDS011;41295;48.518;9.206;2023-06-14T04:33:48;8.98;;;5.72;;
32250;SDS011;41295;48.518;9.206;2023-06-14T04:35:52;11.55;;;6.10;;
32250;SDS011;41295;48.518;9.206;2023-06-14T04:37:57;8.43;;;5.57;;
32250;SDS011;41295;48.518;9.206;2023-06-14T04:40:00;9.60;;;5.72;;
32250;SDS011;41295;48.518;9.206;2023-06-14T04:42:07;8.93;;;5.38;;
32250;SDS011;41295;48.518;9.206;2023-06-14T04:44:13;9.63;;;5.55;;
32250;SDS011;41295;48.518;9.206;2023-06-14T04:46:18;12.18;;;5.70;;
32250;SDS011;41295;48.518;9.206;2023-06-14T04:48:21;7.90;;;5.35;;
32250;SDS011;41295;48.518;9.206;2023-06-14T04:50:24;9.35;;;5.90;;
32250;SDS011;41295;48.518;9.206;2023-06-14T04:52:27;10.75;;;6.03;;
32250;SDS011;41295;48.518;9.206;2023-06-14T04:54:32;7.75;;;5.63;;
32250;SDS011;41295;48.518;9.206;2023-06-14T04:56:41;13.43;;;6.03;;
32250;SDS011;41295;48.518;9.206;2023-06-14T04:58:46;8.75;;;5.63;;
32250;SDS011;41295;48.518;9.206;2023-06-14T05:00:48;8.80;;;5.75;;
32250;SDS011;41295;48.518;9.206;2023-06-14T05:02:51;7.95;;;5.40;;
32250;SDS011;41295;48.518;9.206;2023-06-14T05:04:54;11.65;;;5.63;;
32250;SDS011;41295;48.518;9.206;2023-06-14T05:06:58;14.15;;;5.63;;
32250;SDS011;41295;48.518;9.206;2023-06-14T05:09:02;7.22;;;5.25;;
32250;SDS011;41295;48.518;9.206;2023-06-14T05:11:05;10.25;;;5.30;;
32250;SDS011;41295;48.518;9.206;2023-06-14T05:13:07;11.73;;;5.70;;
32250;SDS011;41295;48.518;9.206;2023-06-14T05:15:13;8.45;;;4.78;;
32250;SDS011;41295;48.518;9.206;2023-06-14T05:17:16;11.60;;;5.43;;
32250;SDS011;41295;48.518;9.206;2023-06-14T05:19:19;9.63;;;5.00;;
32250;SDS011;41295;48.518;9.206;2023-06-14T05:21:22;7.90;;;4.72;;
32250;SDS011;41295;48.518;9.206;2023-06-14T05:23:25;9.57;;;5.15;;
32250;SDS011;41295;48.518;9.206;2023-06-14T05:25:28;9.80;;;4.68;;
32250;SDS011;41295;48.518;9.206;2023-06-14T05:27:31;10.57;;;5.30;;
32250;SDS011;41295;48.518;9.206;2023-06-14T05:29:35;7.63;;;4.80;;
32250;SDS011;41295;48.518;9.206;2023-06-14T05:31:39;7.93;;;5.20;;
32250;SDS011;41295;48.518;9.206;2023-06-14T05:33:42;8.35;;;5.10;;
32250;SDS011;41295;48.518;9.206;2023-06-14T05:35:45;8.35;;;5.40;;
32250;SDS011;41295;48.518;9.206;2023-06-14T05:37:48;8.80;;;5.05;;
32250;SDS011;41295;48.518;9.206;2023-06-14T05:39:50;8.77;;;5.20;;
32250;SDS011;41295;48.518;9.206;2023-06-14T05:41:53;10.05;;;5.00;;
32250;SDS011;41295;48.518;9.206;2023-06-14T05:43:56;10.13;;;5.18;;
32250;SDS011;41295;48.518;9.206;2023-06-14T05:45:59;7.72;;;5.38;;
32250;SDS011;41295;48.518;9.206;2023-06-14T05:48:03;11.63;;;5.97;;
32250;SDS011;41295;48.518;9.206;2023-06-14T05:50:06;8.93;;;5.40;;
32250;SDS011;41295;48.518;9.206;2023-06-14T05:52:10;8.35;;;5.25;;
32250;SDS011;41295;48.518;9.206;2023-06-14T05:54:14;9.18;;;5.70;;
32250;SDS011;41295;48.518;9.206;2023-06-14T05:56:17;9.10;;;5.45;;
32250;SDS011;41295;48.518;9.206;2023-06-14T05:58:20;11.18;;;5.40;;
32250;SDS011;41295;48.518;9.206;2023-06-14T06:00:23;13.02;;;5.57;;
32250;SDS011;41295;48.518;9.206;2023-06-14T06:02:25;8.98;;;5.25;;
32250;SDS011;41295;48.518;9.206;2023-06-14T06:04:30;9.48;;;4.97;;
32250;SDS011;41295;48.518;9.206;2023-06-14T06:06:33;7.85;;;5.57;;
32250;SDS011;41295;48.518;9.206;2023-06-14T06:08:36;9.45;;;5.72;;
32250;SDS011;41295;48.518;9.206;2023-06-14T06:10:39;7.75;;;5.10;;
32250;SDS011;41295;48.518;9.206;2023-06-14T06:12:42;11.13;;;5.82;;
32250;SDS011;41295;48.518;9.206;2023-06-14T06:14:45;7.47;;;5.32;;
32250;SDS011;41295;48.518;9.206;2023-06-14T06:16:47;9.13;;;5.00;;
32250;SDS011;41295;48.518;9.206;2023-06-14T06:18:50;8.23;;;6.03;;
32250;SDS011;41295;48.518;9.206;2023-06-14T06:20:54;9.48;;;5.75;;
32250;SDS011;41295;48.518;9.206;2023-06-14T06:22:57;8.00;;;5.28;;
32250;SDS011;41295;48.518;9.206;2023-06-14T06:25:00;7.05;;;5.20;;
32250;SDS011;41295;48.518;9.206;2023-06-14T06:27:03;13.52;;;5.95;;
32250;SDS011;41295;48.518;9.206;2023-06-14T06:29:09;10.65;;;5.38;;
32250;SDS011;41295;48.518;9.206;2023-06-14T06:31:12;8.15;;;5.40;;
32250;SDS011;41295;48.518;9.206;2023-06-14T06:33:15;8.98;;;4.88;;
32250;SDS011;41295;48.518;9.206;2023-06-14T06:35:18;8.85;;;4.88;;
32250;SDS011;41295;48.518;9.206;2023-06-14T06:37:22;11.48;;;5.47;;
32250;SDS011;41295;48.518;9.206;2023-06-14T06:39:25;8.27;;;5.47;;
32250;SDS011;41295;48.518;9.206;2023-06-14T06:41:27;8.35;;;5.10;;
32250;SDS011;41295;48.518;9.206;2023-06-14T06:43:30;8.18;;;5.22;;
32250;SDS011;41295;48.518;9.206;2023-06-14T06:45:33;9.57;;;5.35;;
32250;SDS011;41295;48.518;9.206;2023-06-14T06:47:36;10.45;;;5.18;;
32250;SDS011;41295;48.518;9.206;2023-06-14T06:49:38;10.52;;;5.78;;
32250;SDS011;41295;48.518;9.206;2023-06-14T06:51:41;12.07;;;5.65;;
32250;SDS011;41295;48.518;9.206;2023-06-14T06:53:51;9.57;;;6.05;;
32250;SDS011;41295;48.518;9.206;2023-06-14T06:55:54;9.35;;;5.60;;
32250;SDS011;41295;48.518;9.206;2023-06-14T06:57:57;9.57;;;5.80;;
32250;SDS011;41295;48.518;9.206;2023-06-14T07:00:01;9.18;;;6.28;;
32250;SDS011;41295;48.518;9.206;2023-06-14T07:02:06;8.60;;;6.03;;
32250;SDS011;41295;48.518;9.206;2023-06-14T07:04:08;9.38;;;6.15;;
32250;SDS011;41295;48.518;9.206;2023-06-14T07:06:11;9.07;;;5.15;;
32250;SDS011;41295;48.518;9.206;2023-06-14T07:08:14;7.95;;;5.90;;
32250;SDS011;41295;48.518;9.206;2023-06-14T07:10:18;8.27;;;5.55;;
32250;SDS011;41295;48.518;9.206;2023-06-14T07:12:21;12.25;;;6.00;;
32250;SDS011;41295;48.518;9.206;2023-06-14T07:14:23;6.60;;;5.10;;
32250;SDS011;41295;48.518;9.206;2023-06-14T07:16:26;12.85;;;5.55;;
32250;SDS011;41295;48.518;9.206;2023-06-14T07:18:29;7.43;;;5.32;;
32250;SDS011;41295;48.518;9.206;2023-06-14T07:20:32;8.55;;;4.85;;
32250;SDS011;41295;48.518;9.206;2023-06-14T07:22:34;9.50;;;4.80;;
32250;SDS011;41295;48.518;9.206;2023-06-14T07:24:37;7.15;;;5.65;;
32250;SDS011;41295;48.518;9.206;2023-06-14T07:26:43;6.82;;;4.90;;
32250;SDS011;41295;48.518;9.206;2023-06-14T07:28:46;7.07;;;5.28;;
32250;SDS011;41295;48.518;9.206;2023-06-14T07:30:49;12.80;;;5.88;;
32250;SDS011;41295;48.518;9.206;2023-06-14T07:32:52;9.27;;;5.90;;
32250;SDS011;41295;48.518;9.206;2023-06-14T07:34:56;8.05;;;5.47;;
32250;SDS011;41295;48.518;9.206;2023-06-14T07:36:58;10.43;;;5.38;;
32250;SDS011;41295;48.518;9.206;2023-06-14T07:39:01;10.07;;;5.95;;
32250;SDS011;41295;48.518;9.206;2023-06-14T07:41:04;9.88;;;5.72;;
32250;SDS011;41295;48.518;9.206;2023-06-14T07:43:08;7.78;;;5.28;;
32250;SDS011;41295;48.518;9.206;2023-06-14T07:45:12;11.32;;;6.07;;
32250;SDS011;41295;48.518;9.206;2023-06-14T07:47:16;11.77;;;6.13;;
32250;SDS011;41295;48.518;9.206;2023-06-14T07:49:19;11.45;;;5.40;;
32250;SDS011;41295;48.518;9.206;2023-06-14T07:51:22;16.88;;;5.97;;
32250;SDS011;41295;48.518;9.206;2023-06-14T07:53:24;10.30;;;5.53;;
32250;SDS011;41295;48.518;9.206;2023-06-14T07:55:27;11.13;;;5.72;;
32250;SDS011;41295;48.518;9.206;2023-06-14T07:57:39;9.88;;;5.53;;
32250;SDS011;41295;48.518;9.206;2023-06-14T07:59:43;10.75;;;5.78;;
32250;SDS011;41295;48.518;9.206;2023-06-14T08:01:46;11.57;;;5.78;;
32250;SDS011;41295;48.518;9.206;2023-06-14T08:03:49;9.77;;;6.07;;
32250;SDS011;41295;48.518;9.206;2023-06-14T08:05:52;7.93;;;5.47;;
32250;SDS011;41295;48.518;9.206;2023-06-14T08:07:55;8.23;;;5.50;;
32250;SDS011;41295;48.518;9.206;2023-06-14T08:09:57;8.95;;;5.53;;
32250;SDS011;41295;48.518;9.206;2023-06-14T08:12:00;13.75;;;5.40;;
32250;SDS011;41295;48.518;9.206;2023-06-14T08:14:03;10.85;;;5.63;;
32250;SDS011;41295;48.518;9.206;2023-06-14T08:16:07;6.47;;;4.72;;
32250;SDS011;41295;48.518;9.206;2023-06-14T08:18:10;11.15;;;5.60;;
32250;SDS011;41295;48.518;9.206;2023-06-14T08:20:13;12.13;;;5.35;;
32250;SDS011;41295;48.518;9.206;2023-06-14T08:22:18;9.48;;;5.00;;
32250;SDS011;41295;48.518;9.206;2023-06-14T08:24:21;8.15;;;4.70;;
32250;SDS011;41295;48.518;9.206;2023-06-14T08:26:26;7.93;;;4.50;;
32250;SDS011;41295;48.518;9.206;2023-06-14T08:28:30;7.10;;;5.00;;
32250;SDS011;41295;48.518;9.206;2023-06-14T08:30:32;8.48;;;5.35;;
32250;SDS011;41295;48.518;9.206;2023-06-14T08:32:36;11.38;;;4.97;;
32250;SDS011;41295;48.518;9.206;2023-06-14T08:34:39;7.25;;;4.80;;
32250;SDS011;41295;48.518;9.206;2023-06-14T08:36:47;14.38;;;4.75;;
32250;SDS011;41295;48.518;9.206;2023-06-14T08:38:50;11.85;;;4.80;;
32250;SDS011;41295;48.518;9.206;2023-06-14T08:40:53;9.02;;;4.55;;
32250;SDS011;41295;48.518;9.206;2023-06-14T08:42:59;10.20;;;5.00;;
32250;SDS011;41295;48.518;9.206;2023-06-14T08:45:02;10.73;;;4.57;;
32250;SDS011;41295;48.518;9.206;2023-06-14T08:47:05;11.40;;;4.93;;
32250;SDS011;41295;48.518;9.206;2023-06-14T08:49:11;8.43;;;4.68;;
32250;SDS011;41295;48.518;9.206;2023-06-14T08:51:15;5.95;;;4.30;;
32250;SDS011;41295;48.518;9.206;2023-06-14T08:53:23;6.35;;;4.78;;
32250;SDS011;41295;48.518;9.206;2023-06-14T08:55:26;8.35;;;4.28;;
32250;SDS011;41295;48.518;9.206;2023-06-14T08:57:31;14.88;;;4.45;;
32250;SDS011;41295;48.518;9.206;2023-06-14T08:59:38;8.20;;;4.68;;
32250;SDS011;41295;48.518;9.206;2023-06-14T09:01:50;4.90;;;4.10;;
32250;SDS011;41295;48.518;9.206;2023-06-14T09:04:14;6.22;;;4.15;;
32250;SDS011;41295;48.518;9.206;2023-06-14T09:06:20;8.20;;;4.22;;
32250;SDS011;41295;48.518;9.206;2023-06-14T09:08:24;12.32;;;4.82;;
32250;SDS011;41295;48.518;9.206;2023-06-14T09:10:27;8.70;;;4.47;;
32250;SDS011;41295;48.518;9.206;2023-06-14T09:12:31;13.10;;;4.95;;
32250;SDS011;41295;48.518;9.206;2023-06-14T09:14:34;8.65;;;4.53;;
32250;SDS011;41295;48.518;9.206;2023-06-14T09:16:39;7.70;;;4.63;;
32250;SDS011;41295;48.518;9.206;2023-06-14T09:18:43;13.52;;;4.97;;
32250;SDS011;41295;48.518;9.206;2023-06-14T09:20:50;9.32;;;4.63;;
32250;SDS011;41295;48.518;9.206;2023-06-14T09:22:53;9.90;;;4.32;;
32250;SDS011;41295;48.518;9.206;2023-06-14T09:24:56;7.57;;;4.75;;
32250;SDS011;41295;48.518;9.206;2023-06-14T09:26:58;11.02;;;5.20;;
32250;SDS011;41295;48.518;9.206;2023-06-14T09:29:01;6.63;;;4.00;;
32250;SDS011;41295;48.518;9.206;2023-06-14T09:31:03;6.82;;;4.78;;
32250;SDS011;41295;48.518;9.206;2023-06-14T09:33:06;8.20;;;4.53;;
32250;SDS011;41295;48.518;9.206;2023-06-14T09:35:09;6.85;;;4.60;;
32250;SDS011;41295;48.518;9.206;2023-06-14T09:37:14;7.22;;;4.50;;
32250;SDS011;41295;48.518;9.206;2023-06-14T09:39:29;11.25;;;5.20;;
32250;SDS011;41295;48.518;9.206;2023-06-14T09:41:31;9.32;;;4.28;;
32250;SDS011;41295;48.518;9.206;2023-06-14T09:43:35;6.07;;;4.47;;
32250;SDS011;41295;48.518;9.206;2023-06-14T09:45:38;10.88;;;5.18;;
32250;SDS011;41295;48.518;9.206;2023-06-14T09:47:42;7.38;;;4.38;;
32250;SDS011;41295;48.518;9.206;2023-06-14T09:50:06;6.88;;;4.72;;
32250;SDS011;41295;48.518;9.206;2023-06-14T09:52:10;9.45;;;4.57;;
32250;SDS011;41295;48.518;9.206;2023-06-14T09:54:15;7.50;;;4.22;;
32250;SDS011;41295;48.518;9.206;2023-06-14T09:56:23;6.38;;;4.03;;
32250;SDS011;41295;48.518;9.206;2023-06-14T09:58:31;7.75;;;4.22;;
32250;SDS011;41295;48.518;9.206;2023-06-14T10:00:39;7.78;;;3.90;;
32250;SDS011;41295;48.518;9.206;2023-06-14T10:02:42;8.05;;;3.80;;
32250;SDS011;41295;48.518;9.206;2023-06-14T10:04:53;11.20;;;4.20;;
32250;SDS011;41295;48.518;9.206;2023-06-14T10:07:02;6.88;;;3.70;;
32250;SDS011;41295;48.518;9.206;2023-06-14T10:09:07;5.10;;;3.70;;
32250;SDS011;41295;48.518;9.206;2023-06-14T10:11:12;11.23;;;3.88;;
32250;SDS011;41295;48.518;9.206;2023-06-14T10:13:15;8.55;;;4.03;;
32250;SDS011;41295;48.518;9.206;2023-06-14T10:15:19;5.95;;;3.88;;
32250;SDS011;41295;48.518;9.206;2023-06-14T10:17:27;7.65;;;4.22;;
32250;SDS011;41295;48.518;9.206;2023-06-14T10:21:46;5.78;;;4.47;;
32250;SDS011;41295;48.518;9.206;2023-06-14T10:23:58;7.18;;;4.25;;
32250;SDS011;41295;48.518;9.206;2023-06-14T10:26:06;7.45;;;4.38;;
32250;SDS011;41295;48.518;9.206;2023-06-14T10:28:16;7.40;;;4.13;;
32250;SDS011;41295;48.518;9.206;2023-06-14T10:30:25;8.05;;;4.13;;
32250;SDS011;41295;48.518;9.206;2023-06-14T10:32:28;7.70;;;4.43;;
32250;SDS011;41295;48.518;9.206;2023-06-14T10:34:31;7.55;;;5.15;;
32250;SDS011;41295;48.518;9.206;2023-06-14T10:36:34;9.00;;;4.75;;
32250;SDS011;41295;48.518;9.206;2023-06-14T10:38:37;12.05;;;4.35;;
32250;SDS011;41295;48.518;9.206;2023-06-14T10:40:40;7.28;;;4.47;;
32250;SDS011;41295;48.518;9.206;2023-06-14T10:42:51;10.90;;;4.80;;
32250;SDS011;41295;48.518;9.206;2023-06-14T10:44:55;9.60;;;4.50;;
32250;SDS011;41295;48.518;9.206;2023-06-14T10:47:00;7.47;;;4.30;;
32250;SDS011;41295;48.518;9.206;2023-06-14T10:49:03;8.02;;;4.80;;
32250;SDS011;41295;48.518;9.206;2023-06-14T10:51:06;7.07;;;4.28;;
32250;SDS011;41295;48.518;9.206;2023-06-14T10:53:21;13.73;;;4.70;;
32250;SDS011;41295;48.518;9.206;2023-06-14T10:55:24;6.68;;;4.85;;
32250;SDS011;41295;48.518;9.206;2023-06-14T10:57:27;10.90;;;4.75;;
32250;SDS011;41295;48.518;9.206;2023-06-14T10:59:31;6.70;;;4.55;;
32250;SDS011;41295;48.518;9.206;2023-06-14T11:01:40;9.07;;;4.20;;
32250;SDS011;41295;48.518;9.206;2023-06-14T11:03:50;5.95;;;4.07;;
32250;SDS011;41295;48.518;9.206;2023-06-14T11:05:57;6.72;;;4.28;;
32250;SDS011;41295;48.518;9.206;2023-06-14T11:08:10;7.60;;;5.03;;
32250;SDS011;41295;48.518;9.206;2023-06-14T11:10:26;5.78;;;4.35;;
32250;SDS011;41295;48.518;9.206;2023-06-14T11:12:38;7.68;;;4.40;;
32250;SDS011;41295;48.518;9.206;2023-06-14T11:14:45;6.90;;;3.85;;
32250;SDS011;41295;48.518;9.206;2023-06-14T11:16:49;4.50;;;4.00;;
32250;SDS011;41295;48.518;9.206;2023-06-14T11:18:53;6.38;;;4.05;;
32250;SDS011;41295;48.518;9.206;2023-06-14T11:20:56;6.20;;;4.30;;
32250;SDS011;41295;48.518;9.206;2023-06-14T11:22:58;13.77;;;4.53;;
32250;SDS011;41295;48.518;9.206;2023-06-14T11:25:02;7.32;;;4.43;;
32250;SDS011;41295;48.518;9.206;2023-06-14T11:27:06;6.60;;;3.95;;
32250;SDS011;41295;48.518;9.206;2023-06-14T11:29:09;10.88;;;4.32;;
32250;SDS011;41295;48.518;9.206;2023-06-14T11:31:12;4.75;;;3.78;;
32250;SDS011;41295;48.518;9.206;2023-06-14T11:33:19;7.75;;;3.92;;
32250;SDS011;41295;48.518;9.206;2023-06-14T11:35:22;11.35;;;4.22;;
32250;SDS011;41295;48.518;9.206;2023-06-14T11:37:25;6.35;;;4.00;;
32250;SDS011;41295;48.518;9.206;2023-06-14T11:39:30;11.65;;;4.60;;
32250;SDS011;41295;48.518;9.206;2023-06-14T11:41:33;7.47;;;4.43;;
32250;SDS011;41295;48.518;9.206;2023-06-14T11:43:39;8.57;;;4.50;;
32250;SDS011;41295;48.518;9.206;2023-06-14T11:45:42;6.82;;;4.05;;
32250;SDS011;41295;48.518;9.206;2023-06-14T11:47:57;5.20;;;3.95;;
32250;SDS011;41295;48.518;9.206;2023-06-14T11:50:02;9.20;;;4.30;;
32250;SDS011;41295;48.518;9.206;2023-06-14T11:52:06;5.72;;;4.00;;
32250;SDS011;41295;48.518;9.206;2023-06-14T11:54:09;8.25;;;4.35;;
32250;SDS011;41295;48.518;9.206;2023-06-14T11:56:12;4.70;;;3.88;;
32250;SDS011;41295;48.518;9.206;2023-06-14T11:58:18;8.68;;;4.43;;
32250;SDS011;41295;48.518;9.206;2023-06-14T12:00:24;6.63;;;4.35;;
32250;SDS011;41295;48.518;9.206;2023-06-14T12:02:28;6.95;;;4.25;;
32250;SDS011;41295;48.518;9.206;2023-06-14T12:04:33;6.80;;;4.28;;
32250;SDS011;41295;48.518;9.206;2023-06-14T12:06:37;6.80;;;4.28;;
32250;SDS011;41295;48.518;9.206;2023-06-14T12:08:44;8.80;;;4.15;;
32250;SDS011;41295;48.518;9.206;2023-06-14T12:10:50;6.50;;;4.15;;
32250;SDS011;41295;48.518;9.206;2023-06-14T12:12:56;7.53;;;4.35;;
32250;SDS011;41295;48.518;9.206;2023-06-14T12:14:59;8.13;;;4.40;;
32250;SDS011;41295;48.518;9.206;2023-06-14T12:17:04;6.50;;;3.97;;
32250;SDS011;41295;48.518;9.206;2023-06-14T12:19:12;9.88;;;4.45;;
32250;SDS011;41295;48.518;9.206;2023-06-14T12:21:16;7.88;;;4.82;;
32250;SDS011;41295;48.518;9.206;2023-06-14T12:23:20;7.97;;;4.13;;
32250;SDS011;41295;48.518;9.206;2023-06-14T12:25:23;7.65;;;4.53;;